Sizerock, KY (41762)

12:54 PM EDT on June 30, 2015 (GMT -0400)
KKYJACKS3 | | Change Station
CLOSE
Current Station
Personal Weather Station
Location: Talbert, KY
Elevation: 994 ft
Nearby Weather Stations

Elev 994 ft 37.41 °N, 83.42 °W | Updated 4 minutes ago

Partly Cloudy
Partly Cloudy
82.0 °F
Feels Like 86 °F
N
0.0
Wind Variable Wind from North
Gusts 0.0 mph

Today
High -- | Low -- °F
--% Chance of Precip.
Yesterday
High -- | Low -- °F
Precip. -- in
6:16 AM 8:57 PM
Waxing Gibbous, 98% visible
Pressure 29.91 in
Visibility 10.0 miles
Clouds Few 1600 ft
Few 2200 ft
Mostly Cloudy 10000 ft
Heat Index 86 °F
Dew Point 70 °F
Humidity 67%
Rainfall in
Snow Depth Not available.
UV 6 out of 12
Pollen 3.00 out of 12
Air Quality Not available.
Flu Activity No Activity
METAR KJKL 301553Z AUTO VRB04KT 10SM FEW016 FEW022 BKN100 24/19 A2995 RMK AO2 SLP128 T02440194

More Conditions Fewer Conditions

Pressure 29.91 in
Visibility 10.0 miles
Clouds Few 1600 ft
Few 2200 ft
Mostly Cloudy 10000 ft
Heat Index 86 °F
Dew Point 70 °F
Humidity 67%
Rainfall in
Snow Depth Not available.
UV 6 out of 12
Pollen 3.00 out of 12
Air Quality Not available.
Flu Activity No Activity
METAR KJKL 301553Z AUTO VRB04KT 10SM FEW016 FEW022 BKN100 24/19 A2995 RMK AO2 SLP128 T02440194

More Conditions Fewer Conditions

10-Day Weather Forecast

×

Almanac

Astronomy

Jun. 30, 2015 Rise Set
Actual Time
Civil Twilight
Nautical Twilight
Astronomical Twilight
Moon
Length of Visible Light
Length of Day
Tomorrow will be .
, % of the Moon is Illuminated

Today's Extremes

State Highs State Lows

Community

WunderPhotos

Upload Photos

1,834,038 photos uploaded!

WunderBlogs® & News

Nearby

Air Quality

  Air Quality AQ Index Pollutant
Not available.

Snow Depth

Station Depth Elevation

Earthquake Activity

City Distance Mag. Time & Date
Minimum magnitude displayed is 2.5.

Coastal Water Temperatures

Place Temperature

Stations

Nearby Weather Stations

Station Location Temp. Windchill Dew Point Humidity Wind Precip. Elev Updated Type